Time;durP1;ratioP1;P1;durP2;ratioP2;P2;SDS_P1;SDS_P2;PMS_P1;PMS_P2;Temp;Humidity;BMP_temperature;BMP_pressure;BME280_temperature;BME280_humidity;BME280_pressure;Samples;Min_cycle;Max_cycle;Signal;HPM_P1;HPM_P2
2023/09/18 00:00:01;;;;;;;3.17;2.92;;;;;;;;;;5091293;28;20570;-73
2023/09/18 00:02:31;;;;;;;3.10;2.83;;;;;;;;;;5082987;28;20683;-72
2023/09/18 00:04:58;;;;;;;6.93;3.05;;;;;;;;;;5091109;28;20211;-71
2023/09/18 00:07:25;;;;;;;3.95;3.40;;;;;;;;;;5090889;28;20718;-71
2023/09/18 00:09:51;;;;;;;3.65;3.35;;;;;;;;;;5091139;28;20664;-71
2023/09/18 00:12:17;;;;;;;3.47;3.22;;;;;;;;;;5090951;28;20222;-71
2023/09/18 00:14:43;;;;;;;3.50;3.28;;;;;;;;;;5091355;28;20202;-73
2023/09/18 00:17:10;;;;;;;3.30;3.10;;;;;;;;;;5091012;28;20207;-72
2023/09/18 00:19:36;;;;;;;4.40;3.45;;;;;;;;;;5090943;28;20241;-72
2023/09/18 00:22:04;;;;;;;3.35;3.15;;;;;;;;;;5090915;28;20676;-72
2023/09/18 00:24:30;;;;;;;3.25;3.05;;;;;;;;;;5091038;28;20206;-72
2023/09/18 00:26:57;;;;;;;3.50;2.88;;;;;;;;;;5090554;28;20196;-72
2023/09/18 00:29:23;;;;;;;3.17;2.90;;;;;;;;;;5090642;28;20214;-72
2023/09/18 00:31:49;;;;;;;4.45;3.38;;;;;;;;;;5091088;28;20204;-72
2023/09/18 00:34:15;;;;;;;3.22;3.00;;;;;;;;;;5090834;28;20220;-72
2023/09/18 00:36:42;;;;;;;3.53;3.17;;;;;;;;;;5091981;28;20222;-72
2023/09/18 00:39:09;;;;;;;4.78;3.22;;;;;;;;;;5094520;28;20577;-72
2023/09/18 00:41:36;;;;;;;3.50;3.20;;;;;;;;;;5094788;28;20195;-72
2023/09/18 00:44:03;;;;;;;4.00;3.20;;;;;;;;;;5094630;28;20206;-72
2023/09/18 00:46:30;;;;;;;4.75;3.70;;;;;;;;;;5093997;28;20630;-72
2023/09/18 00:48:56;;;;;;;3.50;3.20;;;;;;;;;;5094347;28;20196;-71
2023/09/18 00:51:22;;;;;;;3.50;3.17;;;;;;;;;;5094168;28;20212;-71
2023/09/18 00:53:49;;;;;;;3.85;3.08;;;;;;;;;;5094131;28;20228;-72
2023/09/18 00:56:17;;;;;;;3.33;2.95;;;;;;;;;;5093906;28;20227;-72
2023/09/18 00:58:43;;;;;;;3.30;2.88;;;;;;;;;;5094338;28;20207;-72
2023/09/18 01:01:10;;;;;;;4.10;2.95;;;;;;;;;;5094101;28;20191;-72
2023/09/18 01:03:37;;;;;;;3.47;2.97;;;;;;;;;;5094058;28;20559;-72
2023/09/18 01:06:03;;;;;;;3.13;3.00;;;;;;;;;;5093807;28;20219;-72
2023/09/18 01:08:30;;;;;;;3.38;3.10;;;;;;;;;;5094646;28;20223;-72
2023/09/18 01:11:02;;;;;;;3.17;2.95;;;;;;;;;;5094215;28;20216;-73
2023/09/18 01:13:31;;;;;;;3.33;3.10;;;;;;;;;;5093865;28;20336;-72
2023/09/18 01:15:58;;;;;;;3.30;3.10;;;;;;;;;;5093782;28;20235;-72
2023/09/18 01:18:25;;;;;;;3.47;3.00;;;;;;;;;;5093807;28;20203;-72
2023/09/18 01:20:51;;;;;;;4.43;2.85;;;;;;;;;;5093990;28;20198;-72
2023/09/18 01:23:19;;;;;;;3.30;3.20;;;;;;;;;;5093555;28;20199;-72
2023/09/18 01:25:45;;;;;;;3.67;3.15;;;;;;;;;;5093759;28;20219;-72
2023/09/18 01:28:11;;;;;;;3.63;3.30;;;;;;;;;;5093305;28;20211;-72
2023/09/18 01:30:38;;;;;;;3.15;2.92;;;;;;;;;;5093495;28;20660;-72
2023/09/18 01:33:05;;;;;;;3.40;3.20;;;;;;;;;;5093392;28;20219;-72
2023/09/18 01:35:32;;;;;;;3.20;2.92;;;;;;;;;;5093029;28;20255;-72
2023/09/18 01:37:59;;;;;;;3.30;2.80;;;;;;;;;;5093412;28;20199;-72
2023/09/18 01:40:27;;;;;;;3.00;2.80;;;;;;;;;;5093476;28;20195;-72
2023/09/18 01:42:53;;;;;;;4.47;2.88;;;;;;;;;;5093398;28;20203;-72
2023/09/18 01:45:19;;;;;;;3.22;3.03;;;;;;;;;;5093154;28;20224;-72
2023/09/18 01:47:46;;;;;;;3.10;3.00;;;;;;;;;;5093034;28;20203;-72
2023/09/18 01:50:13;;;;;;;2.97;2.78;;;;;;;;;;5092842;28;20676;-72
2023/09/18 01:52:39;;;;;;;3.67;3.38;;;;;;;;;;5093175;28;20196;-72
2023/09/18 01:55:07;;;;;;;3.47;3.28;;;;;;;;;;5092948;28;20724;-72
2023/09/18 01:57:36;;;;;;;3.03;2.50;;;;;;;;;;5092734;28;20298;-72
2023/09/18 02:00:03;;;;;;;6.13;3.38;;;;;;;;;;5093036;28;20201;-72
2023/09/18 02:02:29;;;;;;;3.40;3.15;;;;;;;;;;5092835;28;20199;-72
2023/09/18 02:04:56;;;;;;;3.60;3.40;;;;;;;;;;5092769;28;20273;-72
2023/09/18 02:07:22;;;;;;;3.50;3.20;;;;;;;;;;5092771;28;20204;-72
2023/09/18 02:09:48;;;;;;;6.65;3.40;;;;;;;;;;5092876;28;20215;-72
2023/09/18 02:12:17;;;;;;;12.18;4.05;;;;;;;;;;5092758;28;20207;-72
2023/09/18 02:14:45;;;;;;;3.60;2.83;;;;;;;;;;5092515;28;20207;-71
2023/09/18 02:17:12;;;;;;;6.13;3.40;;;;;;;;;;5092354;28;20215;-71
2023/09/18 02:19:38;;;;;;;5.93;3.40;;;;;;;;;;5092813;28;20679;-71
2023/09/18 02:22:05;;;;;;;4.55;2.85;;;;;;;;;;5092815;28;20572;-71
2023/09/18 02:24:31;;;;;;;3.92;3.25;;;;;;;;;;5092741;28;20202;-71
2023/09/18 02:26:57;;;;;;;11.30;3.30;;;;;;;;;;5092653;28;20196;-71
2023/09/18 02:29:23;;;;;;;3.63;3.30;;;;;;;;;;5092146;28;20214;-71
2023/09/18 02:31:51;;;;;;;5.85;3.97;;;;;;;;;;5092446;28;20203;-71
2023/09/18 02:34:19;;;;;;;7.85;4.18;;;;;;;;;;5092432;28;20215;-71
2023/09/18 02:36:45;;;;;;;7.43;4.05;;;;;;;;;;5092106;28;20222;-71
2023/09/18 02:39:11;;;;;;;4.30;3.88;;;;;;;;;;5092394;28;20200;-71
2023/09/18 02:41:37;;;;;;;8.73;4.00;;;;;;;;;;5092253;28;20207;-71
2023/09/18 02:44:04;;;;;;;7.13;4.20;;;;;;;;;;5092274;28;20211;-71
2023/09/18 02:46:30;;;;;;;7.75;4.05;;;;;;;;;;5091583;28;20227;-71
2023/09/18 02:48:58;;;;;;;8.00;4.05;;;;;;;;;;5092259;28;20196;-71
2023/09/18 02:51:24;;;;;;;5.88;4.20;;;;;;;;;;5091784;28;20200;-71
2023/09/18 02:53:51;;;;;;;4.25;3.83;;;;;;;;;;5091989;28;20218;-71
2023/09/18 02:56:17;;;;;;;4.43;4.00;;;;;;;;;;5091621;28;20224;-71
2023/09/18 02:58:43;;;;;;;7.95;4.03;;;;;;;;;;5091510;28;20200;-71
2023/09/18 03:01:09;;;;;;;5.50;3.97;;;;;;;;;;5091789;28;20288;-71
2023/09/18 03:03:36;;;;;;;7.47;4.20;;;;;;;;;;5091641;28;20682;-71
2023/09/18 03:06:04;;;;;;;6.93;4.30;;;;;;;;;;5091585;28;20215;-71
2023/09/18 03:08:30;;;;;;;9.38;4.38;;;;;;;;;;5091778;28;20206;-71
2023/09/18 03:10:56;;;;;;;9.13;4.38;;;;;;;;;;5091991;28;20192;-71
2023/09/18 03:13:23;;;;;;;4.35;3.95;;;;;;;;;;5091502;28;20238;-71
2023/09/18 03:15:49;;;;;;;5.95;3.58;;;;;;;;;;5091777;28;20215;-72
2023/09/18 03:18:15;;;;;;;9.63;4.13;;;;;;;;;;5091612;28;20222;-72
2023/09/18 03:20:42;;;;;;;7.63;4.30;;;;;;;;;;5091621;28;20199;-72
2023/09/18 03:23:09;;;;;;;3.80;3.50;;;;;;;;;;5091679;28;20200;-72
2023/09/18 03:25:36;;;;;;;4.93;4.00;;;;;;;;;;5091191;28;20222;-72
2023/09/18 03:28:02;;;;;;;7.72;3.95;;;;;;;;;;5091060;28;20203;-72
2023/09/18 03:30:28;;;;;;;7.55;3.88;;;;;;;;;;5091279;28;20547;-72
2023/09/18 03:32:55;;;;;;;5.88;3.88;;;;;;;;;;5091612;28;20214;-72
2023/09/18 03:35:21;;;;;;;6.45;3.00;;;;;;;;;;5091363;28;20227;-72
2023/09/18 03:37:47;;;;;;;5.55;3.60;;;;;;;;;;5091343;28;20203;-72
2023/09/18 03:40:16;;;;;;;5.78;3.33;;;;;;;;;;5091372;28;20779;-72
2023/09/18 03:42:42;;;;;;;5.57;3.10;;;;;;;;;;5091113;28;20206;-72
2023/09/18 03:45:09;;;;;;;5.90;3.35;;;;;;;;;;5091465;28;20215;-72
2023/09/18 03:47:35;;;;;;;8.70;4.05;;;;;;;;;;5091090;28;20203;-72
2023/09/18 03:50:02;;;;;;;5.38;3.83;;;;;;;;;;5091205;28;20717;-72
2023/09/18 03:52:28;;;;;;;5.75;3.97;;;;;;;;;;5091177;28;20199;-72
2023/09/18 03:54:54;;;;;;;7.05;4.18;;;;;;;;;;5091053;28;20246;-72
2023/09/18 03:57:22;;;;;;;5.85;4.13;;;;;;;;;;5090735;28;20578;-72
2023/09/18 03:59:48;;;;;;;6.20;3.80;;;;;;;;;;5091477;28;20195;-72
2023/09/18 04:02:15;;;;;;;4.60;3.97;;;;;;;;;;5091372;28;20211;-72
2023/09/18 04:04:41;;;;;;;6.82;4.28;;;;;;;;;;5091056;28;20672;-72
2023/09/18 04:07:07;;;;;;;5.97;4.28;;;;;;;;;;5090910;28;20200;-72
2023/09/18 04:09:34;;;;;;;4.43;3.95;;;;;;;;;;5090975;28;20690;-72
2023/09/18 04:12:01;;;;;;;5.85;3.70;;;;;;;;;;5092991;28;20323;-72
2023/09/18 04:14:28;;;;;;;7.47;4.03;;;;;;;;;;5095028;28;20231;-72
2023/09/18 04:16:55;;;;;;;6.30;4.32;;;;;;;;;;5095007;28;20212;-72
2023/09/18 04:19:21;;;;;;;5.57;3.97;;;;;;;;;;5094996;28;20200;-72
2023/09/18 04:21:47;;;;;;;4.50;3.80;;;;;;;;;;5094789;28;20624;-72
2023/09/18 04:24:14;;;;;;;5.05;3.83;;;;;;;;;;5094803;28;20238;-72
2023/09/18 04:26:40;;;;;;;4.00;3.55;;;;;;;;;;5094449;28;20627;-72
2023/09/18 04:29:06;;;;;;;5.10;3.55;;;;;;;;;;5094677;28;20231;-72
2023/09/18 04:31:34;;;;;;;3.85;3.20;;;;;;;;;;5094648;28;20675;-72
2023/09/18 04:34:00;;;;;;;4.43;2.88;;;;;;;;;;5094658;28;20219;-72
2023/09/18 04:36:26;;;;;;;5.35;3.30;;;;;;;;;;5094334;28;20226;-72
2023/09/18 04:38:53;;;;;;;3.30;3.05;;;;;;;;;;5094576;28;20200;-72
2023/09/18 04:41:20;;;;;;;5.22;3.58;;;;;;;;;;5094577;28;20574;-74
2023/09/18 04:43:46;;;;;;;3.42;2.90;;;;;;;;;;5094479;28;20204;-70
2023/09/18 04:46:12;;;;;;;9.07;3.80;;;;;;;;;;5094177;28;20219;-70
2023/09/18 04:48:40;;;;;;;8.48;3.53;;;;;;;;;;5094319;28;20547;-70
2023/09/18 04:51:06;;;;;;;8.13;3.70;;;;;;;;;;5094337;28;20196;-70
2023/09/18 04:53:33;;;;;;;11.30;4.13;;;;;;;;;;5094647;28;20211;-70
2023/09/18 04:56:00;;;;;;;5.45;3.70;;;;;;;;;;5094287;28;20222;-70
2023/09/18 04:58:26;;;;;;;7.55;3.70;;;;;;;;;;5094090;28;20227;-70
2023/09/18 05:00:56;;;;;;;7.00;3.95;;;;;;;;;;5094174;28;20200;-70
2023/09/18 05:03:22;;;;;;;8.75;4.60;;;;;;;;;;5094039;28;20592;-70
2023/09/18 05:05:50;;;;;;;4.80;4.00;;;;;;;;;;5093812;28;20216;-70
2023/09/18 05:08:17;;;;;;;10.95;4.30;;;;;;;;;;5093753;28;20667;-70
2023/09/18 05:10:43;;;;;;;9.32;4.55;;;;;;;;;;5093952;28;20204;-70
2023/09/18 05:13:10;;;;;;;7.53;4.15;;;;;;;;;;5094087;28;20219;-70
2023/09/18 05:15:37;;;;;;;6.57;3.63;;;;;;;;;;5093542;28;20224;-70
2023/09/18 05:18:03;;;;;;;6.47;3.65;;;;;;;;;;5093726;28;20320;-70
2023/09/18 05:20:30;;;;;;;6.82;3.38;;;;;;;;;;5093734;28;20203;-71
2023/09/18 05:22:58;;;;;;;7.63;3.78;;;;;;;;;;5093363;28;20196;-71
2023/09/18 05:25:26;;;;;;;6.28;3.22;;;;;;;;;;5093744;28;20226;-71
2023/09/18 05:27:55;;;;;;;8.68;3.15;;;;;;;;;;5093461;28;20210;-71
2023/09/18 05:30:23;;;;;;;6.82;2.95;;;;;;;;;;5093526;28;20290;-71
2023/09/18 05:32:49;;;;;;;7.93;3.08;;;;;;;;;;5093996;28;20200;-71
2023/09/18 05:35:16;;;;;;;5.18;3.10;;;;;;;;;;5093229;28;20226;-71
2023/09/18 05:37:43;;;;;;;6.25;3.17;;;;;;;;;;5093099;28;20257;-70
2023/09/18 05:40:12;;;;;;;7.63;2.95;;;;;;;;;;5093491;28;20196;-70
2023/09/18 05:42:38;;;;;;;6.00;3.08;;;;;;;;;;5093321;28;20196;-70
2023/09/18 05:45:06;;;;;;;6.43;3.40;;;;;;;;;;5093236;28;20215;-70
2023/09/18 05:47:33;;;;;;;5.32;2.95;;;;;;;;;;5093139;28;20200;-70
2023/09/18 05:49:59;;;;;;;9.57;3.72;;;;;;;;;;5093141;28;20207;-70
2023/09/18 05:52:26;;;;;;;8.60;3.33;;;;;;;;;;5093338;28;20206;-70
2023/09/18 05:54:52;;;;;;;7.57;3.15;;;;;;;;;;5092852;28;20251;-70
2023/09/18 05:57:20;;;;;;;14.48;3.53;;;;;;;;;;5092933;28;20226;-70
2023/09/18 05:59:46;;;;;;;3.78;3.13;;;;;;;;;;5092963;28;20589;-70
2023/09/18 06:02:12;;;;;;;5.72;3.40;;;;;;;;;;5092982;28;20235;-70
2023/09/18 06:04:39;;;;;;;4.35;3.08;;;;;;;;;;5092691;28;20198;-70
2023/09/18 06:07:05;;;;;;;5.20;3.38;;;;;;;;;;5092857;28;20200;-70
2023/09/18 06:09:31;;;;;;;5.90;3.60;;;;;;;;;;5092916;28;20214;-70
2023/09/18 06:11:59;;;;;;;4.82;3.15;;;;;;;;;;5092998;28;20575;-70
2023/09/18 06:14:27;;;;;;;5.78;2.78;;;;;;;;;;5089391;28;20636;-72
2023/09/18 06:16:53;;;;;;;5.05;3.03;;;;;;;;;;5080720;28;20699;-72
2023/09/18 06:19:19;;;;;;;8.02;3.38;;;;;;;;;;5087087;28;20204;-72
2023/09/18 06:21:45;;;;;;;6.50;3.00;;;;;;;;;;5086397;28;20214;-72
2023/09/18 06:24:12;;;;;;;8.95;2.75;;;;;;;;;;5086782;28;20211;-70
2023/09/18 06:26:38;;;;;;;10.10;3.30;;;;;;;;;;5086459;28;20711;-70
2023/09/18 06:29:05;;;;;;;7.40;3.33;;;;;;;;;;5076751;28;20208;-70
2023/09/18 06:31:32;;;;;;;8.00;3.47;;;;;;;;;;5082989;28;20330;-70
2023/09/18 06:33:59;;;;;;;8.98;3.83;;;;;;;;;;5082453;28;20208;-70
2023/09/18 06:36:25;;;;;;;5.82;4.18;;;;;;;;;;5083671;28;20223;-70
2023/09/18 06:38:51;;;;;;;10.93;4.32;;;;;;;;;;5083714;28;20204;-70
2023/09/18 06:41:17;;;;;;;6.80;3.75;;;;;;;;;;5084261;28;20215;-70
2023/09/18 06:43:44;;;;;;;9.00;3.92;;;;;;;;;;5083743;28;20256;-70
2023/09/18 06:46:10;;;;;;;11.55;4.07;;;;;;;;;;5082738;28;20364;-70
2023/09/18 06:48:38;;;;;;;9.23;4.32;;;;;;;;;;5083127;28;20211;-72
2023/09/18 06:51:06;;;;;;;9.18;4.07;;;;;;;;;;5085770;28;20238;-74
2023/09/18 06:53:32;;;;;;;10.20;3.90;;;;;;;;;;5084841;28;20242;-71
2023/09/18 06:55:59;;;;;;;10.82;3.83;;;;;;;;;;5084180;28;20227;-70
2023/09/18 06:58:25;;;;;;;7.93;3.45;;;;;;;;;;5084167;28;20215;-70
2023/09/18 07:00:51;;;;;;;12.75;3.50;;;;;;;;;;5084157;28;20584;-73
2023/09/18 07:03:18;;;;;;;9.25;2.80;;;;;;;;;;5084997;28;20215;-72
2023/09/18 07:05:46;;;;;;;10.75;2.65;;;;;;;;;;5084542;28;20273;-73
2023/09/18 07:08:12;;;;;;;9.60;2.92;;;;;;;;;;5084707;28;20212;-72
2023/09/18 07:10:39;;;;;;;8.80;2.80;;;;;;;;;;5084715;28;20687;-74
2023/09/18 07:13:06;;;;;;;5.28;2.33;;;;;;;;;;5084577;28;20204;-71
2023/09/18 07:15:32;;;;;;;6.95;2.28;;;;;;;;;;5084524;28;20227;-73
2023/09/18 07:17:58;;;;;;;3.30;1.98;;;;;;;;;;5084495;28;20234;-75
2023/09/18 07:20:24;;;;;;;7.72;2.33;;;;;;;;;;5084659;28;20214;-75
2023/09/18 07:22:52;;;;;;;6.30;1.95;;;;;;;;;;5085034;28;20211;-72
2023/09/18 07:25:18;;;;;;;5.38;1.98;;;;;;;;;;5083836;28;20726;-72
2023/09/18 07:27:45;;;;;;;9.32;2.60;;;;;;;;;;5084471;28;20215;-72
2023/09/18 07:30:12;;;;;;;9.25;2.50;;;;;;;;;;5083742;28;20215;-72
2023/09/18 07:32:40;;;;;;;3.65;1.90;;;;;;;;;;5083989;28;20211;-73
2023/09/18 07:35:07;;;;;;;5.82;2.33;;;;;;;;;;5084123;28;20584;-73
2023/09/18 07:37:35;;;;;;;6.22;2.17;;;;;;;;;;5084309;28;20204;-71
2023/09/18 07:40:02;;;;;;;10.25;2.28;;;;;;;;;;5083614;28;20218;-70
2023/09/18 07:42:28;;;;;;;9.38;2.10;;;;;;;;;;5083889;28;20212;-69
2023/09/18 07:44:55;;;;;;;7.32;2.13;;;;;;;;;;5084150;28;21035;-71
2023/09/18 07:47:22;;;;;;;3.90;1.60;;;;;;;;;;5087729;28;20211;-70
2023/09/18 07:49:48;;;;;;;6.70;2.10;;;;;;;;;;5088448;28;20233;-73
2023/09/18 07:52:15;;;;;;;6.07;2.17;;;;;;;;;;5088329;28;20207;-72
2023/09/18 07:54:41;;;;;;;5.40;2.15;;;;;;;;;;5087985;28;20280;-72
2023/09/18 07:57:09;;;;;;;7.75;1.85;;;;;;;;;;5087627;28;20265;-72
2023/09/18 07:59:36;;;;;;;5.60;2.05;;;;;;;;;;5088352;28;20211;-72
2023/09/18 08:02:02;;;;;;;10.45;1.90;;;;;;;;;;5088325;28;20241;-72
2023/09/18 08:04:28;;;;;;;3.20;1.50;;;;;;;;;;5088256;28;20265;-72
2023/09/18 08:06:55;;;;;;;7.13;1.67;;;;;;;;;;5087617;28;20230;-72
2023/09/18 08:09:22;;;;;;;6.88;1.50;;;;;;;;;;5087380;28;20261;-72
2023/09/18 08:11:49;;;;;;;7.07;1.52;;;;;;;;;;5087731;28;20211;-72
2023/09/18 08:14:17;;;;;;;4.68;1.35;;;;;;;;;;5086720;28;20212;-72
2023/09/18 08:16:43;;;;;;;7.43;1.60;;;;;;;;;;5087458;28;20314;-74
2023/09/18 08:19:09;;;;;;;7.55;1.48;;;;;;;;;;5087709;28;20215;-69
2023/09/18 08:21:36;;;;;;;7.15;1.52;;;;;;;;;;5088062;28;20214;-69
2023/09/18 08:24:03;;;;;;;5.72;1.80;;;;;;;;;;5087760;28;20207;-69
2023/09/18 08:26:29;;;;;;;7.22;1.30;;;;;;;;;;5087281;28;20226;-69
2023/09/18 08:28:56;;;;;;;6.18;1.70;;;;;;;;;;5087456;28;20214;-70
2023/09/18 08:31:24;;;;;;;6.82;1.40;;;;;;;;;;5085156;28;20212;-69
2023/09/18 08:33:50;;;;;;;6.35;1.73;;;;;;;;;;5088397;28;20218;-70
2023/09/18 08:36:16;;;;;;;4.90;1.25;;;;;;;;;;5086631;28;20263;-71
2023/09/18 08:38:43;;;;;;;3.38;1.00;;;;;;;;;;5074172;28;20571;-70
2023/09/18 08:41:10;;;;;;;5.93;1.35;;;;;;;;;;5082338;28;20218;-72
2023/09/18 08:43:38;;;;;;;7.45;1.52;;;;;;;;;;5088642;28;20214;-69
2023/09/18 08:46:04;;;;;;;4.00;1.17;;;;;;;;;;5088024;28;20220;-70
2023/09/18 08:48:34;;;;;;;3.65;1.23;;;;;;;;;;5081539;28;20279;-71
2023/09/18 08:51:02;;;;;;;4.53;1.08;;;;;;;;;;5082237;28;20302;-70
2023/09/18 08:53:29;;;;;;;2.33;0.98;;;;;;;;;;5083890;28;20684;-70
2023/09/18 08:55:58;;;;;;;1.77;1.10;;;;;;;;;;5088805;28;20726;-70
2023/09/18 08:58:24;;;;;;;3.25;1.27;;;;;;;;;;5087542;28;20210;-72
2023/09/18 09:00:51;;;;;;;10.77;1.00;;;;;;;;;;5082470;28;20684;-71
2023/09/18 09:03:17;;;;;;;2.67;0.90;;;;;;;;;;5086898;28;20215;-73
2023/09/18 09:05:45;;;;;;;3.33;1.00;;;;;;;;;;5089952;28;20215;-72
2023/09/18 09:08:11;;;;;;;5.28;1.10;;;;;;;;;;5088535;28;20230;-73
2023/09/18 09:10:37;;;;;;;4.10;1.00;;;;;;;;;;5088479;28;20212;-69
2023/09/18 09:13:04;;;;;;;1.98;0.70;;;;;;;;;;5088142;28;20207;-69
2023/09/18 09:15:33;;;;;;;2.53;1.15;;;;;;;;;;5080385;28;20228;-69
2023/09/18 09:18:03;;;;;;;7.97;1.23;;;;;;;;;;5084087;28;20207;-69
2023/09/18 09:20:29;;;;;;;2.95;1.10;;;;;;;;;;5078420;28;20210;-69
2023/09/18 09:23:00;;;;;;;3.63;1.10;;;;;;;;;;5084729;28;20676;-69
2023/09/18 09:25:28;;;;;;;3.47;1.17;;;;;;;;;;5087980;28;20222;-69
2023/09/18 09:27:54;;;;;;;3.00;1.00;;;;;;;;;;5089821;28;20218;-70
2023/09/18 09:30:22;;;;;;;2.63;1.17;;;;;;;;;;5085619;28;20207;-69
2023/09/18 09:32:48;;;;;;;4.43;1.25;;;;;;;;;;5076275;28;20211;-69
2023/09/18 09:35:19;;;;;;;1.98;1.05;;;;;;;;;;5073992;28;20228;-69
2023/09/18 09:37:45;;;;;;;1.42;1.20;;;;;;;;;;5083415;28;20256;-69
2023/09/18 09:40:14;;;;;;;2.60;1.35;;;;;;;;;;5075220;28;20215;-69
2023/09/18 09:42:40;;;;;;;5.10;1.40;;;;;;;;;;5084301;28;20216;-69
2023/09/18 09:45:12;;;;;;;4.53;1.35;;;;;;;;;;5082419;28;20228;-69
2023/09/18 09:47:39;;;;;;;3.72;0.95;;;;;;;;;;5083596;28;20204;-69
2023/09/18 09:50:09;;;;;;;2.85;1.77;;;;;;;;;;5072490;28;20200;-69
2023/09/18 09:52:35;;;;;;;2.78;1.05;;;;;;;;;;5081867;28;20207;-69
2023/09/18 09:55:03;;;;;;;2.58;1.30;;;;;;;;;;5075344;28;20228;-68
2023/09/18 09:57:31;;;;;;;4.10;1.25;;;;;;;;;;5080864;28;20290;-70
2023/09/18 10:00:07;;;;;;;5.82;1.55;;;;;;;;;;5086788;28;20204;-71
2023/09/18 10:02:34;;;;;;;3.50;1.10;;;;;;;;;;5078787;28;20278;-72
2023/09/18 10:05:00;;;;;;;2.63;1.00;;;;;;;;;;5083581;28;20707;-70
2023/09/18 10:07:27;;;;;;;2.92;1.27;;;;;;;;;;5085447;28;20203;-70
2023/09/18 10:09:54;;;;;;;2.67;1.10;;;;;;;;;;5074312;28;20660;-69
2023/09/18 10:12:21;;;;;;;2.40;1.23;;;;;;;;;;5078533;28;20590;-68
2023/09/18 10:14:50;;;;;;;2.47;1.15;;;;;;;;;;5082310;28;20213;-70
2023/09/18 10:17:18;;;;;;;7.72;1.30;;;;;;;;;;5084555;28;20231;-70
2023/09/18 10:19:48;;;;;;;4.40;1.70;;;;;;;;;;5088321;28;20204;-71
2023/09/18 10:22:22;;;;;;;3.47;1.23;;;;;;;;;;5084646;28;20214;-71
2023/09/18 10:24:51;;;;;;;3.05;1.55;;;;;;;;;;5081305;28;20214;-68
2023/09/18 10:27:21;;;;;;;5.40;1.50;;;;;;;;;;5084149;28;20214;-69
2023/09/18 10:29:51;;;;;;;2.33;1.35;;;;;;;;;;5081198;28;20572;-70
2023/09/18 10:32:20;;;;;;;1.58;1.45;;;;;;;;;;5079392;28;20211;-70
2023/09/18 10:34:47;;;;;;;1.55;1.40;;;;;;;;;;5077604;28;20210;-70
2023/09/18 10:37:15;;;;;;;3.13;1.13;;;;;;;;;;5083955;28;20304;-70
2023/09/18 10:39:43;;;;;;;2.95;1.60;;;;;;;;;;5079489;28;20806;-71
2023/09/18 10:42:10;;;;;;;2.90;1.20;;;;;;;;;;5086582;28;20561;-69
2023/09/18 10:44:39;;;;;;;3.67;1.42;;;;;;;;;;5086852;28;20208;-70
2023/09/18 10:47:08;;;;;;;4.07;1.50;;;;;;;;;;5083948;28;20207;-70
2023/09/18 10:49:35;;;;;;;4.50;1.27;;;;;;;;;;5088202;28;20200;-69
2023/09/18 10:52:02;;;;;;;3.70;1.38;;;;;;;;;;5085734;28;20580;-71
2023/09/18 10:54:29;;;;;;;4.00;1.50;;;;;;;;;;5086842;28;20215;-70
2023/09/18 10:56:56;;;;;;;1.58;1.45;;;;;;;;;;5081151;28;20231;-71
2023/09/18 10:59:22;;;;;;;4.40;1.52;;;;;;;;;;5086857;28;20207;-71
2023/09/18 11:01:49;;;;;;;3.25;1.42;;;;;;;;;;5086230;28;20227;-69
2023/09/18 11:04:19;;;;;;;4.53;1.35;;;;;;;;;;5079843;28;20219;-69
2023/09/18 11:07:07;;;;;;;5.40;1.50;;;;;;;;;;5080300;28;20301;-72
2023/09/18 11:09:41;;;;;;;2.42;1.20;;;;;;;;;;5077492;28;20667;-71
2023/09/18 11:12:09;;;;;;;2.30;1.10;;;;;;;;;;5087356;28;20223;-73
2023/09/18 11:14:42;;;;;;;1.52;1.15;;;;;;;;;;5085853;28;20239;-70
2023/09/18 11:17:28;;;;;;;4.40;1.17;;;;;;;;;;5085223;28;20689;-71
2023/09/18 11:20:02;;;;;;;1.80;1.35;;;;;;;;;;5068239;28;20208;-68
2023/09/18 11:22:28;;;;;;;3.35;1.50;;;;;;;;;;5082999;28;20207;-69
2023/09/18 11:24:54;;;;;;;3.25;1.83;;;;;;;;;;5074794;28;20809;-70
2023/09/18 11:27:24;;;;;;;4.78;1.48;;;;;;;;;;5083872;28;20208;-68
2023/09/18 11:29:52;;;;;;;2.92;2.10;;;;;;;;;;5080114;28;20215;-71
2023/09/18 11:32:34;;;;;;;5.32;1.80;;;;;;;;;;5079430;28;20217;-70
2023/09/18 11:35:09;;;;;;;5.05;1.98;;;;;;;;;;5082324;28;20220;-70
2023/09/18 11:37:36;;;;;;;3.55;1.73;;;;;;;;;;5083362;28;20231;-70
2023/09/18 11:40:04;;;;;;;4.53;1.85;;;;;;;;;;5083918;28;20207;-69
2023/09/18 11:42:31;;;;;;;6.55;1.60;;;;;;;;;;5085410;28;20268;-70
2023/09/18 11:44:58;;;;;;;6.43;1.70;;;;;;;;;;5084500;28;20228;-70
2023/09/18 11:47:27;;;;;;;3.70;1.55;;;;;;;;;;5082956;28;20214;-72
2023/09/18 11:49:56;;;;;;;2.70;1.42;;;;;;;;;;5084018;28;20215;-70
2023/09/18 11:52:24;;;;;;;3.50;1.35;;;;;;;;;;5083661;28;20687;-70
2023/09/18 11:54:50;;;;;;;1.77;1.33;;;;;;;;;;5083818;28;20204;-70
2023/09/18 11:57:17;;;;;;;8.45;1.65;;;;;;;;;;5083781;28;20226;-70
2023/09/18 11:59:46;;;;;;;2.75;1.60;;;;;;;;;;5083573;28;20199;-69
2023/09/18 12:02:20;;;;;;;3.15;1.65;;;;;;;;;;5084371;28;20212;-70
2023/09/18 12:04:46;;;;;;;3.85;1.45;;;;;;;;;;5084505;28;20621;-69
2023/09/18 12:07:13;;;;;;;3.17;1.58;;;;;;;;;;5083262;28;20203;-70
2023/09/18 12:09:40;;;;;;;4.10;1.63;;;;;;;;;;5084194;28;20255;-70
2023/09/18 12:12:08;;;;;;;2.78;1.10;;;;;;;;;;5084183;28;20595;-74
2023/09/18 12:14:35;;;;;;;1.60;1.30;;;;;;;;;;5083530;28;20211;-72
2023/09/18 12:17:02;;;;;;;2.83;1.40;;;;;;;;;;5084335;28;20590;-68
2023/09/18 12:19:28;;;;;;;2.05;1.17;;;;;;;;;;5083741;28;20287;-71
2023/09/18 12:21:55;;;;;;;2.15;1.10;;;;;;;;;;5083657;28;20208;-70
2023/09/18 12:24:22;;;;;;;2.70;0.85;;;;;;;;;;5084550;28;20214;-70
2023/09/18 12:26:50;;;;;;;2.55;1.02;;;;;;;;;;5083381;28;20314;-70
2023/09/18 12:29:16;;;;;;;1.40;1.08;;;;;;;;;;5083564;28;20215;-70
2023/09/18 12:31:45;;;;;;;2.42;1.13;;;;;;;;;;5083980;28;20212;-71
2023/09/18 12:34:15;;;;;;;1.23;1.00;;;;;;;;;;5087661;28;20199;-71
2023/09/18 12:36:42;;;;;;;4.45;1.10;;;;;;;;;;5079572;28;20223;-71
2023/09/18 12:39:09;;;;;;;3.40;0.98;;;;;;;;;;5087178;28;20239;-71
2023/09/18 12:41:35;;;;;;;2.42;1.30;;;;;;;;;;5087427;28;20613;-71
2023/09/18 12:44:03;;;;;;;4.15;1.10;;;;;;;;;;5088033;28;20216;-71
2023/09/18 12:46:30;;;;;;;2.65;0.82;;;;;;;;;;5087142;28;20224;-71
2023/09/18 12:48:56;;;;;;;2.85;1.00;;;;;;;;;;5087894;28;20208;-71
2023/09/18 12:51:31;;;;;;;3.50;1.13;;;;;;;;;;5087447;28;20207;-71
2023/09/18 12:54:00;;;;;;;1.58;1.33;;;;;;;;;;5087045;28;20290;-71
2023/09/18 12:56:26;;;;;;;4.15;1.23;;;;;;;;;;5086550;28;20220;-69
2023/09/18 12:58:52;;;;;;;1.13;0.80;;;;;;;;;;5086438;28;20210;-70
2023/09/18 13:01:21;;;;;;;3.50;1.05;;;;;;;;;;5087302;28;20211;-69
2023/09/18 13:03:48;;;;;;;3.90;1.02;;;;;;;;;;5087034;28;20226;-69
2023/09/18 13:06:17;;;;;;;6.38;1.05;;;;;;;;;;5086771;28;20223;-68
2023/09/18 13:08:43;;;;;;;6.43;1.33;;;;;;;;;;5079411;28;20261;-68
2023/09/18 13:11:10;;;;;;;1.85;1.23;;;;;;;;;;5087338;28;20208;-68
2023/09/18 13:13:37;;;;;;;5.60;1.20;;;;;;;;;;5086883;28;20207;-68
2023/09/18 13:16:05;;;;;;;1.17;1.10;;;;;;;;;;5086693;28;20565;-68
2023/09/18 13:18:33;;;;;;;2.08;0.98;;;;;;;;;;5086920;28;20218;-69
2023/09/18 13:21:00;;;;;;;2.72;1.00;;;;;;;;;;5086981;28;20213;-69
2023/09/18 13:23:30;;;;;;;3.45;0.90;;;;;;;;;;5086998;28;20211;-68
2023/09/18 13:25:59;;;;;;;2.00;1.00;;;;;;;;;;5086578;28;20298;-71
2023/09/18 13:28:26;;;;;;;1.95;1.00;;;;;;;;;;5085436;28;20211;-69
2023/09/18 13:30:52;;;;;;;1.73;0.82;;;;;;;;;;5085960;28;20527;-70
2023/09/18 13:33:19;;;;;;;2.63;0.90;;;;;;;;;;5086344;28;20214;-70
2023/09/18 13:35:47;;;;;;;1.50;0.90;;;;;;;;;;5083538;28;20281;-70
2023/09/18 13:38:14;;;;;;;3.95;1.10;;;;;;;;;;5085467;28;20365;-70
2023/09/18 13:40:40;;;;;;;4.03;1.08;;;;;;;;;;5085709;28;20296;-70
2023/09/18 13:43:08;;;;;;;1.60;0.85;;;;;;;;;;5086208;28;20199;-70
2023/09/18 13:45:35;;;;;;;2.00;0.80;;;;;;;;;;5085816;28;20234;-70
2023/09/18 13:48:01;;;;;;;2.33;1.00;;;;;;;;;;5085703;28;20210;-70
2023/09/18 13:50:28;;;;;;;1.30;0.90;;;;;;;;;;5086140;28;20218;-70
2023/09/18 13:52:55;;;;;;;1.17;0.90;;;;;;;;;;5085774;28;20212;-70
2023/09/18 13:55:22;;;;;;;3.78;1.10;;;;;;;;;;5086161;28;20226;-70
2023/09/18 13:57:49;;;;;;;4.60;0.90;;;;;;;;;;5083508;28;20219;-71
2023/09/18 14:00:15;;;;;;;0.80;0.80;;;;;;;;;;5085404;28;20701;-71
2023/09/18 14:02:42;;;;;;;4.35;1.48;;;;;;;;;;5086106;28;20207;-71
2023/09/18 14:05:09;;;;;;;2.70;1.15;;;;;;;;;;5085803;28;20230;-71
2023/09/18 14:07:35;;;;;;;2.08;1.00;;;;;;;;;;5085234;28;20211;-71
2023/09/18 14:10:03;;;;;;;3.40;1.15;;;;;;;;;;5085717;28;20707;-71
2023/09/18 14:12:30;;;;;;;3.03;1.02;;;;;;;;;;5085514;28;20660;-71
2023/09/18 14:14:56;;;;;;;3.90;1.05;;;;;;;;;;5085471;28;20219;-71
2023/09/18 14:17:22;;;;;;;3.05;0.80;;;;;;;;;;5085093;28;20598;-70
2023/09/18 14:19:49;;;;;;;0.95;0.95;;;;;;;;;;5085573;28;20206;-70
2023/09/18 14:22:15;;;;;;;1.95;1.00;;;;;;;;;;5085100;28;20207;-71
2023/09/18 14:24:41;;;;;;;4.53;1.10;;;;;;;;;;5085643;28;20215;-71
2023/09/18 14:27:10;;;;;;;0.80;0.60;;;;;;;;;;5085106;28;20210;-71
2023/09/18 14:29:37;;;;;;;3.97;1.10;;;;;;;;;;5084789;28;20658;-71
2023/09/18 14:32:04;;;;;;;5.78;1.02;;;;;;;;;;5085325;28;20203;-71
2023/09/18 14:34:31;;;;;;;1.48;1.00;;;;;;;;;;5085222;28;20294;-71
2023/09/18 14:36:57;;;;;;;1.52;0.90;;;;;;;;;;5084413;28;20330;-71
2023/09/18 14:39:23;;;;;;;2.67;1.10;;;;;;;;;;5085448;28;20293;-71
2023/09/18 14:41:50;;;;;;;1.88;0.90;;;;;;;;;;5085459;28;20210;-71